createdAt,value
2019-02-19T00:02:23.640Z,5.70
2019-02-19T00:04:52.086Z,4.60
2019-02-19T00:07:20.526Z,5.20
2019-02-19T00:09:48.987Z,4.93
2019-02-19T00:12:17.412Z,6.77
2019-02-19T00:14:45.841Z,5.17
2019-02-19T00:17:14.291Z,4.60
2019-02-19T00:19:42.720Z,3.97
2019-02-19T00:22:11.179Z,4.97
2019-02-19T00:24:39.623Z,4.87
2019-02-19T00:27:08.063Z,5.53
2019-02-19T00:29:36.492Z,4.27
2019-02-19T00:32:04.953Z,4.90
2019-02-19T00:34:33.381Z,4.23
2019-02-19T00:37:21.244Z,4.27
2019-02-19T00:39:49.693Z,4.50
2019-02-19T00:42:18.144Z,5.03
2019-02-19T00:44:46.590Z,5.07
2019-02-19T00:47:15.042Z,4.73
2019-02-19T00:49:43.478Z,4.70
2019-02-19T00:52:11.911Z,4.50
2019-02-19T00:54:40.370Z,3.77
2019-02-19T00:57:08.795Z,4.03
2019-02-19T00:59:37.247Z,3.90
2019-02-19T01:02:08.603Z,3.10
2019-02-19T01:04:37.047Z,4.10
2019-02-19T01:07:05.563Z,3.97
2019-02-19T01:09:34.275Z,4.30
2019-02-19T01:12:02.720Z,3.20
2019-02-19T01:14:31.190Z,4.60
2019-02-19T01:16:59.632Z,3.47
2019-02-19T01:19:28.092Z,4.53
2019-02-19T01:21:56.581Z,3.87
2019-02-19T01:24:25.027Z,4.20
2019-02-19T01:26:53.544Z,4.50
2019-02-19T01:29:21.968Z,4.37
2019-02-19T01:31:50.416Z,3.73
2019-02-19T01:34:18.867Z,4.40
2019-02-19T01:36:47.314Z,4.00
2019-02-19T01:39:15.744Z,4.47
2019-02-19T01:41:44.204Z,4.53
2019-02-19T01:44:12.802Z,3.80
2019-02-19T01:46:41.248Z,4.30
2019-02-19T01:49:15.613Z,3.80
2019-02-19T01:51:46.144Z,3.10
2019-02-19T01:54:14.638Z,3.33
2019-02-19T01:56:43.067Z,3.67
2019-02-19T01:59:11.525Z,4.00
2019-02-19T02:01:39.958Z,4.03
2019-02-19T02:04:08.411Z,3.30
2019-02-19T02:06:36.841Z,3.53
2019-02-19T02:09:05.875Z,3.97
2019-02-19T02:11:34.307Z,4.20
2019-02-19T02:14:08.525Z,3.53
2019-02-19T02:16:36.951Z,3.90
2019-02-19T02:19:05.406Z,4.53
2019-02-19T02:21:33.851Z,4.63
2019-02-19T02:24:02.314Z,5.10
2019-02-19T02:26:30.748Z,5.30
2019-02-19T02:28:59.264Z,4.43
2019-02-19T02:31:27.724Z,4.53
2019-02-19T02:33:56.196Z,5.97
2019-02-19T02:36:24.647Z,4.83
2019-02-19T02:38:53.089Z,5.07
2019-02-19T02:41:21.536Z,5.37
2019-02-19T02:43:49.978Z,5.43
2019-02-19T02:46:18.429Z,5.60
2019-02-19T02:48:47.869Z,6.40
2019-02-19T02:51:16.410Z,7.00
2019-02-19T02:53:44.843Z,7.93
2019-02-19T02:56:17.339Z,7.77
2019-02-19T02:58:45.857Z,8.20
2019-02-19T03:01:14.312Z,7.90
2019-02-19T03:03:42.763Z,9.17
2019-02-19T03:06:18.921Z,8.07
2019-02-19T03:08:50.372Z,7.90
2019-02-19T03:11:18.867Z,8.77
2019-02-19T03:14:06.656Z,8.80
2019-02-19T03:16:35.095Z,9.27
2019-02-19T03:19:03.551Z,9.70
2019-02-19T03:21:31.988Z,10.13
2019-02-19T03:24:00.439Z,9.20
2019-02-19T03:26:28.939Z,10.40
2019-02-19T03:28:57.484Z,10.17
2019-02-19T03:31:26.059Z,10.30
2019-02-19T03:33:54.592Z,11.50
2019-02-19T03:36:23.116Z,10.80
2019-02-19T03:38:51.641Z,12.17
2019-02-19T03:41:20.087Z,11.50
2019-02-19T03:43:48.522Z,13.20
2019-02-19T03:46:16.979Z,12.47
2019-02-19T03:48:45.421Z,12.40
2019-02-19T03:51:13.877Z,13.20
2019-02-19T03:53:42.326Z,13.30
2019-02-19T03:56:10.779Z,13.10
2019-02-19T03:58:39.216Z,13.80
2019-02-19T04:01:07.818Z,13.83
2019-02-19T04:03:55.601Z,16.03
2019-02-19T04:06:24.052Z,14.50
2019-02-19T04:08:52.500Z,15.27
2019-02-19T04:11:21.011Z,17.13
2019-02-19T04:13:49.481Z,16.47
2019-02-19T04:16:21.380Z,15.50
2019-02-19T04:18:48.172Z,16.27
2019-02-19T04:21:16.613Z,16.23
2019-02-19T04:23:45.076Z,15.07
2019-02-19T04:26:14.143Z,15.33
2019-02-19T04:28:42.758Z,15.60
2019-02-19T04:31:11.285Z,15.17
2019-02-19T04:33:39.818Z,15.53
2019-02-19T04:36:08.272Z,16.63
2019-02-19T04:38:36.821Z,19.50
2019-02-19T04:41:05.323Z,17.70
2019-02-19T04:43:33.783Z,17.50
2019-02-19T04:46:02.222Z,19.60
2019-02-19T04:48:30.690Z,18.57
2019-02-19T04:50:59.124Z,19.30
2019-02-19T04:53:27.576Z,18.87
2019-02-19T04:55:56.032Z,18.97
2019-02-19T04:58:24.487Z,19.10
2019-02-19T05:00:53.047Z,18.70
2019-02-19T05:03:21.836Z,19.77
2019-02-19T05:05:50.294Z,21.30
2019-02-19T05:08:18.753Z,21.27
2019-02-19T05:10:47.211Z,20.30
2019-02-19T05:13:15.657Z,22.40
2019-02-19T05:15:44.112Z,23.90
2019-02-19T05:18:12.588Z,22.67
2019-02-19T05:20:41.041Z,23.00
2019-02-19T05:23:09.475Z,24.27
2019-02-19T05:25:37.938Z,24.53
2019-02-19T05:28:06.372Z,26.13
2019-02-19T05:30:54.166Z,25.40
2019-02-19T05:33:22.686Z,27.13
2019-02-19T05:35:51.143Z,25.20
2019-02-19T05:38:19.615Z,26.03
2019-02-19T05:40:48.096Z,26.80
2019-02-19T05:43:16.589Z,23.20
2019-02-19T05:45:45.118Z,25.20
2019-02-19T05:48:13.547Z,25.73
2019-02-19T05:50:42.002Z,25.40
2019-02-19T05:53:10.462Z,23.53
2019-02-19T05:55:38.972Z,23.07
2019-02-19T05:58:07.475Z,23.70
2019-02-19T06:00:35.913Z,23.60
2019-02-19T06:03:04.371Z,24.60
2019-02-19T06:05:32.945Z,22.50
2019-02-19T06:08:01.452Z,22.20
2019-02-19T06:10:30.865Z,23.57
2019-02-19T06:12:59.315Z,22.40
2019-02-19T06:15:27.782Z,21.80
2019-02-19T06:17:56.435Z,22.10
2019-02-19T06:20:24.946Z,21.30
2019-02-19T06:22:53.395Z,20.60
2019-02-19T06:25:21.833Z,21.93
2019-02-19T06:27:50.280Z,21.67
2019-02-19T06:30:18.719Z,20.80
2019-02-19T06:32:47.176Z,20.53
2019-02-19T06:35:15.616Z,21.30
2019-02-19T06:37:44.147Z,20.73
2019-02-19T06:40:26.513Z,20.40
2019-02-19T06:42:55.048Z,23.30
2019-02-19T06:45:23.555Z,21.20
2019-02-19T06:48:11.364Z,21.87
2019-02-19T06:50:43.465Z,21.40
2019-02-19T06:53:13.057Z,21.73
2019-02-19T06:55:41.541Z,22.23
2019-02-19T06:58:09.983Z,22.33
2019-02-19T07:00:38.465Z,22.90
2019-02-19T07:03:11.275Z,22.50
2019-02-19T07:05:39.739Z,21.80
2019-02-19T07:08:08.170Z,21.90
2019-02-19T07:10:36.633Z,21.53
2019-02-19T07:13:05.067Z,21.53
2019-02-19T07:15:33.524Z,20.20
2019-02-19T07:18:02.023Z,21.90
2019-02-19T07:20:30.551Z,20.67
2019-02-19T07:23:18.325Z,21.00
2019-02-19T07:25:46.783Z,20.57
2019-02-19T07:28:15.236Z,19.50
2019-02-19T07:30:43.689Z,20.90
2019-02-19T07:33:12.128Z,19.00
2019-02-19T07:35:40.575Z,18.10
2019-02-19T07:38:09.010Z,18.10
2019-02-19T07:40:37.466Z,18.93
2019-02-19T07:43:05.899Z,19.30
2019-02-19T07:45:35.906Z,17.87
2019-02-19T07:48:04.357Z,17.93
2019-02-19T07:50:33.663Z,18.23
2019-02-19T07:53:02.144Z,17.70
2019-02-19T07:55:30.601Z,16.30
2019-02-19T07:57:59.126Z,17.13
2019-02-19T08:00:27.628Z,16.67
2019-02-19T08:02:56.091Z,18.00
2019-02-19T08:05:24.527Z,16.40
2019-02-19T08:07:52.984Z,16.70
2019-02-19T08:10:21.424Z,16.77
2019-02-19T08:12:49.877Z,15.47
2019-02-19T08:15:18.324Z,15.97
2019-02-19T08:17:46.767Z,17.30
2019-02-19T08:20:16.276Z,15.40
2019-02-19T08:22:44.971Z,14.87
2019-02-19T08:25:13.431Z,15.70
2019-02-19T08:27:41.892Z,15.53
2019-02-19T08:30:11.155Z,14.47
2019-02-19T08:32:46.840Z,14.87
2019-02-19T08:35:34.619Z,14.90
2019-02-19T08:38:03.092Z,17.10
2019-02-19T08:40:31.538Z,15.70
2019-02-19T08:42:59.997Z,15.30
2019-02-19T08:45:47.770Z,13.33
2019-02-19T08:48:16.276Z,13.47
2019-02-19T08:50:45.732Z,15.07
2019-02-19T08:53:14.189Z,12.90
2019-02-19T08:55:42.632Z,13.60
2019-02-19T08:58:11.085Z,15.80
2019-02-19T09:00:39.526Z,14.60
2019-02-19T09:03:07.984Z,13.70
2019-02-19T09:05:36.427Z,13.87
2019-02-19T09:08:04.996Z,13.77
2019-02-19T09:10:33.480Z,13.67
2019-02-19T09:13:01.925Z,13.80
2019-02-19T09:15:30.454Z,13.47
2019-02-19T09:17:58.897Z,14.00
2019-02-19T09:20:27.421Z,14.80
2019-02-19T09:22:55.868Z,13.43
2019-02-19T09:25:24.332Z,12.60
2019-02-19T09:27:52.773Z,12.60
2019-02-19T09:30:21.321Z,12.83
2019-02-19T09:33:09.091Z,13.47
2019-02-19T09:35:37.548Z,13.00
2019-02-19T09:38:06.054Z,14.20
2019-02-19T09:40:34.528Z,12.40
2019-02-19T09:43:03.075Z,15.10
2019-02-19T09:45:31.531Z,14.10
2019-02-19T09:48:01.510Z,14.60
2019-02-19T09:50:30.334Z,14.77
2019-02-19T09:53:00.301Z,13.13
2019-02-19T09:55:28.977Z,14.10
2019-02-19T09:58:16.760Z,12.27
2019-02-19T10:00:45.248Z,12.13
2019-02-19T10:03:14.129Z,12.93
2019-02-19T10:05:42.668Z,13.17
2019-02-19T10:08:11.103Z,10.43
2019-02-19T10:10:39.559Z,9.57
2019-02-19T10:13:07.998Z,8.97
2019-02-19T10:15:37.439Z,12.40
2019-02-19T10:18:10.243Z,7.90
2019-02-19T10:20:36.056Z,7.37
2019-02-19T10:23:04.496Z,7.70
2019-02-19T10:25:32.940Z,11.27
2019-02-19T10:28:01.397Z,5.40
2019-02-19T10:30:29.918Z,5.33
2019-02-19T10:32:58.360Z,3.20
2019-02-19T10:35:26.803Z,4.30
2019-02-19T10:37:55.332Z,4.17
2019-02-19T10:40:23.853Z,3.47
2019-02-19T10:42:52.326Z,3.83
2019-02-19T10:45:23.099Z,3.23
2019-02-19T10:47:51.554Z,3.60
2019-02-19T10:50:20.057Z,7.63
2019-02-19T10:52:48.514Z,3.40
2019-02-19T10:55:16.949Z,4.90
2019-02-19T10:57:45.420Z,5.83
2019-02-19T11:00:19.255Z,5.20
2019-02-19T11:02:47.797Z,4.73
2019-02-19T11:05:16.296Z,5.50
2019-02-19T11:07:44.748Z,4.27
2019-02-19T11:10:16.999Z,5.57
2019-02-19T11:12:45.441Z,3.87
2019-02-19T11:15:17.380Z,6.70
2019-02-19T11:17:46.100Z,3.73
2019-02-19T11:20:20.242Z,4.20
2019-02-19T11:22:48.844Z,4.57
2019-02-19T11:25:17.375Z,3.40
2019-02-19T11:27:45.873Z,2.93
2019-02-19T11:30:20.347Z,3.20
2019-02-19T11:32:48.859Z,3.97
2019-02-19T11:35:17.367Z,2.90
2019-02-19T11:37:45.809Z,3.00
2019-02-19T11:40:14.810Z,3.73
2019-02-19T11:42:43.303Z,2.60
2019-02-19T11:45:16.625Z,2.90
2019-02-19T11:47:45.131Z,2.30
2019-02-19T11:50:13.960Z,2.40
2019-02-19T11:52:42.476Z,2.50
2019-02-19T11:55:16.489Z,3.17
2019-02-19T11:57:44.919Z,3.80
2019-02-19T12:00:16.555Z,3.60
2019-02-19T12:02:45.060Z,3.17
2019-02-19T12:05:13.589Z,3.10
2019-02-19T12:07:42.103Z,3.70
2019-02-19T12:10:12.075Z,3.40
2019-02-19T12:12:40.731Z,2.83
2019-02-19T12:15:13.308Z,2.50
2019-02-19T12:17:41.807Z,2.40
2019-02-19T12:20:12.971Z,3.70
2019-02-19T12:22:41.412Z,2.40
2019-02-19T12:25:15.621Z,3.83
2019-02-19T12:27:44.056Z,3.20
2019-02-19T12:30:19.181Z,3.10
2019-02-19T12:32:47.688Z,2.93
2019-02-19T12:35:22.228Z,3.17
2019-02-19T12:37:50.683Z,3.93
2019-02-19T12:40:31.888Z,3.60
2019-02-19T12:43:00.339Z,2.80
2019-02-19T12:45:48.149Z,4.33
2019-02-19T12:48:16.579Z,2.60
2019-02-19T12:50:45.025Z,2.90
2019-02-19T12:53:13.479Z,2.80
2019-02-19T12:55:43.633Z,2.67
2019-02-19T12:58:12.285Z,5.60
2019-02-19T13:00:40.808Z,3.60
2019-02-19T13:03:09.262Z,3.93
2019-02-19T13:05:37.763Z,2.50
2019-02-19T13:08:06.280Z,3.40
2019-02-19T13:10:34.717Z,3.90
2019-02-19T13:13:03.175Z,5.27
2019-02-19T13:15:31.612Z,2.23
2019-02-19T13:18:00.103Z,4.57
2019-02-19T13:20:28.551Z,13.43
2019-02-19T13:22:57.008Z,3.50
2019-02-19T13:25:25.449Z,2.30
2019-02-19T13:27:53.919Z,8.40
2019-02-19T13:30:22.901Z,3.10
2019-02-19T13:32:51.350Z,7.10
2019-02-19T13:35:19.950Z,2.93
2019-02-19T13:37:48.412Z,2.93
2019-02-19T13:40:19.252Z,2.53
2019-02-19T13:42:48.928Z,3.90
2019-02-19T13:45:17.653Z,3.23
2019-02-19T13:47:46.307Z,2.80
2019-02-19T13:50:17.684Z,3.37
2019-02-19T13:52:50.285Z,2.43
2019-02-19T13:55:21.363Z,1.40
2019-02-19T13:57:49.818Z,2.10
2019-02-19T14:00:19.908Z,2.57
2019-02-19T14:02:48.378Z,2.13
2019-02-19T14:05:16.888Z,2.53
2019-02-19T14:07:45.330Z,3.30
2019-02-19T14:10:14.027Z,2.10
2019-02-19T14:12:42.602Z,2.83
2019-02-19T14:15:16.777Z,1.60
2019-02-19T14:17:45.224Z,2.63
2019-02-19T14:20:20.819Z,2.13
2019-02-19T14:22:53.717Z,2.20
2019-02-19T14:25:30.039Z,2.13
2019-02-19T14:28:16.626Z,3.47
2019-02-19T14:31:02.963Z,2.17
2019-02-19T14:33:35.794Z,2.20
2019-02-19T14:36:10.571Z,3.73
2019-02-19T14:38:40.737Z,2.90
2019-02-19T14:41:16.626Z,2.83
2019-02-19T14:43:46.884Z,4.07
2019-02-19T14:46:41.917Z,2.37
2019-02-19T14:49:34.106Z,2.37
2019-02-19T14:52:04.990Z,2.20
2019-02-19T14:54:44.504Z,2.93
2019-02-19T14:57:34.200Z,3.97
2019-02-19T15:00:07.086Z,2.40
2019-02-19T15:02:39.843Z,2.43
2019-02-19T15:05:12.849Z,2.20
2019-02-19T15:07:43.048Z,2.57
2019-02-19T15:10:25.142Z,3.47
2019-02-19T15:13:11.460Z,2.63
2019-02-19T15:15:41.695Z,2.73
2019-02-19T15:18:33.951Z,2.50
2019-02-19T15:21:07.139Z,1.70
2019-02-19T15:23:37.467Z,3.20
2019-02-19T15:26:08.350Z,2.43
2019-02-19T15:28:41.764Z,2.20
2019-02-19T15:31:27.192Z,2.00
2019-02-19T15:33:59.787Z,2.10
2019-02-19T15:36:42.755Z,2.00
2019-02-19T15:39:32.080Z,2.07
2019-02-19T15:42:02.260Z,3.10
2019-02-19T15:44:38.376Z,2.07
2019-02-19T15:47:15.649Z,2.63
2019-02-19T15:49:49.822Z,3.03
2019-02-19T15:52:29.312Z,2.37
2019-02-19T15:55:02.769Z,2.50
2019-02-19T15:57:49.142Z,1.87
2019-02-19T16:00:34.786Z,2.30
2019-02-19T16:03:08.618Z,2.60
2019-02-19T16:05:50.945Z,2.80
2019-02-19T16:08:24.038Z,2.60
2019-02-19T16:11:12.607Z,1.83
2019-02-19T16:13:51.600Z,2.30
2019-02-19T16:16:40.226Z,3.30
2019-02-19T16:19:26.273Z,2.57
2019-02-19T16:21:56.510Z,1.83
2019-02-19T16:24:43.125Z,2.27
2019-02-19T16:27:19.242Z,2.97
2019-02-19T16:29:55.303Z,4.70
2019-02-19T16:32:26.548Z,2.80
2019-02-19T16:34:59.555Z,3.70
2019-02-19T16:37:47.819Z,4.50
2019-02-19T16:40:36.267Z,3.07
2019-02-19T16:43:12.347Z,2.33
2019-02-19T16:45:51.840Z,3.07
2019-02-19T16:48:30.973Z,2.70
2019-02-19T16:51:04.136Z,2.67
2019-02-19T16:53:34.514Z,2.80
2019-02-19T16:56:22.767Z,2.80
2019-02-19T16:59:10.130Z,2.30
2019-02-19T17:01:47.400Z,4.07
2019-02-19T17:04:17.593Z,9.33
2019-02-19T17:06:47.861Z,2.83
2019-02-19T17:09:18.014Z,2.00
2019-02-19T17:11:51.064Z,2.50
2019-02-19T17:14:32.706Z,2.83
2019-02-19T17:17:01.700Z,2.30
2019-02-19T17:19:39.052Z,2.23
2019-02-19T17:22:18.640Z,2.57
2019-02-19T17:24:48.719Z,2.70
2019-02-19T17:27:24.709Z,2.50
2019-02-19T17:30:00.784Z,3.10
2019-02-19T17:32:30.944Z,2.00
2019-02-19T17:35:04.001Z,2.83
2019-02-19T17:37:51.780Z,2.30
2019-02-19T17:40:30.890Z,3.57
2019-02-19T17:43:14.092Z,2.60
2019-02-19T17:45:48.217Z,2.10
2019-02-19T17:48:35.223Z,2.50
2019-02-19T17:51:18.136Z,2.27
2019-02-19T17:54:13.559Z,2.57
2019-02-19T17:57:01.823Z,2.37
2019-02-19T17:59:32.319Z,2.10
2019-02-19T18:02:06.001Z,2.23
2019-02-19T18:04:48.636Z,3.40
2019-02-19T18:07:21.715Z,2.57
2019-02-19T18:09:52.055Z,2.70
2019-02-19T18:12:44.212Z,2.60
2019-02-19T18:15:14.331Z,3.93
2019-02-19T18:17:47.652Z,2.63
2019-02-19T18:20:16.212Z,2.90
2019-02-19T18:22:44.906Z,5.43
2019-02-19T18:25:13.766Z,3.03
2019-02-19T18:27:42.464Z,2.83
2019-02-19T18:30:11.119Z,2.80
2019-02-19T18:32:45.583Z,2.50
2019-02-19T18:35:14.164Z,2.30
2019-02-19T18:37:43.011Z,2.77
2019-02-19T18:40:11.954Z,2.60
2019-02-19T18:42:40.651Z,2.57
2019-02-19T18:45:09.909Z,2.87
2019-02-19T18:47:38.840Z,3.20
2019-02-19T18:50:09.300Z,3.70
2019-02-19T18:52:38.812Z,3.37
2019-02-19T18:55:08.312Z,3.27
2019-02-19T18:57:36.861Z,2.80
2019-02-19T19:00:08.493Z,4.20
2019-02-19T19:02:37.086Z,2.37
2019-02-19T19:05:07.743Z,3.90
2019-02-19T19:07:36.265Z,2.57
2019-02-19T19:10:07.818Z,3.27
2019-02-19T19:12:36.527Z,2.87
2019-02-19T19:15:08.048Z,2.80
2019-02-19T19:17:39.897Z,3.20
2019-02-19T19:20:11.051Z,2.70
2019-02-19T19:22:39.662Z,3.00
2019-02-19T19:25:08.667Z,2.70
2019-02-19T19:27:37.492Z,2.60
2019-02-19T19:30:09.103Z,5.17
2019-02-19T19:32:37.662Z,3.00
2019-02-19T19:35:08.650Z,2.33
2019-02-19T19:37:37.681Z,2.47
2019-02-19T19:40:09.287Z,4.07
2019-02-19T19:42:38.065Z,3.20
2019-02-19T19:45:11.986Z,3.07
2019-02-19T19:47:40.623Z,3.60
2019-02-19T19:50:10.974Z,3.83
2019-02-19T19:52:39.541Z,3.67
2019-02-19T19:55:09.835Z,4.03
2019-02-19T19:57:38.349Z,3.50
2019-02-19T20:00:12.102Z,5.73
2019-02-19T20:02:41.751Z,4.07
2019-02-19T20:05:11.108Z,3.13
2019-02-19T20:07:41.041Z,4.03
2019-02-19T20:10:15.737Z,4.07
2019-02-19T20:12:44.671Z,3.00
2019-02-19T20:15:13.608Z,3.20
2019-02-19T20:17:43.474Z,3.13
2019-02-19T20:20:12.860Z,4.97
2019-02-19T20:22:41.299Z,3.70
2019-02-19T20:25:13.930Z,4.67
2019-02-19T20:27:42.355Z,4.20
2019-02-19T20:30:12.768Z,4.90
2019-02-19T20:32:41.287Z,4.57
2019-02-19T20:35:10.956Z,5.13
2019-02-19T20:37:39.533Z,4.83
2019-02-19T20:40:09.913Z,5.60
2019-02-19T20:42:38.597Z,5.60
2019-02-19T20:45:12.864Z,6.30
2019-02-19T20:47:46.665Z,5.03
2019-02-19T20:50:15.403Z,5.30
2019-02-19T20:52:43.944Z,5.27
2019-02-19T20:55:12.773Z,5.03
2019-02-19T20:57:41.274Z,4.93
2019-02-19T21:00:19.102Z,5.40
2019-02-19T21:03:07.000Z,6.00
2019-02-19T21:05:35.600Z,6.27
2019-02-19T21:08:04.111Z,5.03
2019-02-19T21:10:32.619Z,7.13
2019-02-19T21:13:01.193Z,4.87
2019-02-19T21:15:29.696Z,5.20
2019-02-19T21:17:58.217Z,6.73
2019-02-19T21:20:26.721Z,6.27
2019-02-19T21:22:55.193Z,5.37
2019-02-19T21:25:30.790Z,6.20
2019-02-19T21:27:53.976Z,6.20
2019-02-19T21:30:22.414Z,5.90
2019-02-19T21:32:51.145Z,6.80
2019-02-19T21:35:19.644Z,7.20
2019-02-19T21:37:48.176Z,6.30
2019-02-19T21:40:17.082Z,6.63
2019-02-19T21:42:45.606Z,6.70
2019-02-19T21:45:15.281Z,6.47
2019-02-19T21:47:43.908Z,6.83
2019-02-19T21:50:15.577Z,6.43
2019-02-19T21:52:43.840Z,6.50
2019-02-19T21:55:12.960Z,6.47
2019-02-19T21:57:41.527Z,6.50
2019-02-19T22:00:13.652Z,7.10
2019-02-19T22:02:42.228Z,7.10
2019-02-19T22:05:10.897Z,7.37
2019-02-19T22:07:39.346Z,7.37
2019-02-19T22:10:10.371Z,6.33
2019-02-19T22:12:38.867Z,6.70
2019-02-19T22:15:09.937Z,6.37
2019-02-19T22:17:38.542Z,6.60
2019-02-19T22:20:29.377Z,6.57
2019-02-19T22:23:17.234Z,6.80
2019-02-19T22:26:05.118Z,6.73
2019-02-19T22:28:33.550Z,5.80
2019-02-19T22:31:02.133Z,6.87
2019-02-19T22:33:30.597Z,6.70
2019-02-19T22:35:59.073Z,7.13
2019-02-19T22:38:27.521Z,6.40
2019-02-19T22:40:55.989Z,6.87
2019-02-19T22:43:24.451Z,6.40
2019-02-19T22:45:52.983Z,7.07
2019-02-19T22:48:22.569Z,7.00
2019-02-19T22:50:51.080Z,6.87
2019-02-19T22:53:38.995Z,7.03
2019-02-19T22:56:09.280Z,6.63
2019-02-19T22:58:37.742Z,6.43
2019-02-19T23:01:14.201Z,6.17
2019-02-19T23:03:42.811Z,6.47
2019-02-19T23:06:11.344Z,5.80
2019-02-19T23:08:40.871Z,6.37
2019-02-19T23:11:09.391Z,6.20
2019-02-19T23:13:38.612Z,5.33
2019-02-19T23:16:07.270Z,6.37
2019-02-19T23:18:35.883Z,5.37
2019-02-19T23:21:04.389Z,6.13
2019-02-19T23:23:32.860Z,6.07
2019-02-19T23:26:01.316Z,6.70
2019-02-19T23:28:29.765Z,5.50
2019-02-19T23:30:58.199Z,5.10
2019-02-19T23:33:26.674Z,5.03
2019-02-19T23:36:05.637Z,5.77
2019-02-19T23:38:34.175Z,5.20
2019-02-19T23:41:02.664Z,4.93
2019-02-19T23:43:31.139Z,5.20
2019-02-19T23:45:59.582Z,5.33
2019-02-19T23:48:28.038Z,5.60
2019-02-19T23:51:15.810Z,4.77
2019-02-19T23:53:44.276Z,4.50
2019-02-19T23:56:12.735Z,4.30
2019-02-19T23:58:41.196Z,5.10
